»·PEaware :: DAL2841 KSLC-KPDX

DAL2841 :: KSLC-KPDX

FLIGHT INFORMATION

Flight Status: Arrived
Operator:
Delta Air Lines
More flights by this operator :: More flights under this callsign
Pilot: Joe P. (13940)
Aircraft: MCDONNELL-DOUGLAS MD-82
(MD82)
More flights by this aircraft type
Origin: KSLC Salt Lake City Intl
United States
Destination: KPDX Portland Intl
United States
More flights between these airports :: More routes between these airports
Route: +TWF4 TWF BOI BKE JOTBA HHOOD4
File this flight plan on PilotEdge
Remarks: SEL / ABCD KSEA -PBN / B3B4B5D3D4 DOF / 180506 REG / N904DL EET / KZSE0058
Altitude:
(Current/Filed)
340ft
Speed:
(Current/Filed)
439kts
Departed: 06-May-18 06:31 PM
Arrived: 06-May-18 08:06 PM
Distance/Time
Traveled:
546nm/1:35
Distance/Time
To Go:
Arrived

Flight Plot

Page will automatically refresh every two minutes.

Flight plan parsing failed; only flown route is shown


Map Options




Map Legend


Flown Route
Filed Route
Departure Airport
Arrival Airport
Navaid (VOR, NDB)
Fix

Horizontal Profiles

Position Reports

Time Latitude Longitude Heading Altitude Ground
Speed
06-May-18 17:29 40.785586 -111.978056 231 4236ft 0kts
06-May-18 17:30 40.785586 -111.978056 231 4236ft 0kts
06-May-18 17:31 40.785586 -111.978056 231 4236ft 0kts
06-May-18 17:32 40.785586 -111.978056 231 4236ft 0kts
06-May-18 17:33 40.785586 -111.978056 231 4236ft 0kts
06-May-18 17:34 40.785586 -111.978056 231 4236ft 0kts
06-May-18 17:35 40.785586 -111.978056 231 4236ft 0kts
06-May-18 17:36 40.785586 -111.978056 231 4236ft 0kts
06-May-18 17:37 40.785586 -111.978056 231 4236ft 0kts
06-May-18 17:38 40.785586 -111.978056 231 4236ft 0kts
06-May-18 17:39 40.785586 -111.978056 231 4236ft 0kts
06-May-18 17:40 40.785586 -111.978056 231 4236ft 0kts
06-May-18 17:41 40.785586 -111.978056 231 4236ft 0kts
06-May-18 17:42 40.785586 -111.978056 231 4236ft 0kts
06-May-18 17:43 40.785586 -111.978056 231 4236ft 0kts
06-May-18 17:44 40.785586 -111.978056 231 4236ft 0kts
06-May-18 17:45 40.785586 -111.978056 231 4236ft 0kts
06-May-18 17:46 40.785586 -111.978056 231 4236ft 0kts
06-May-18 17:47 40.785586 -111.978056 231 4236ft 0kts
06-May-18 17:48 40.785586 -111.978056 231 4236ft 0kts
06-May-18 17:49 40.785586 -111.978056 231 4236ft 0kts
06-May-18 17:50 40.785586 -111.978056 231 4236ft 0kts
06-May-18 17:51 40.785586 -111.978056 231 4236ft 0kts
06-May-18 17:52 40.785586 -111.978056 231 4236ft 0kts
06-May-18 17:53 40.785586 -111.978056 231 4236ft 0kts
06-May-18 17:54 40.785586 -111.978056 231 4236ft 0kts
06-May-18 17:55 40.785586 -111.978056 231 4236ft 0kts
06-May-18 17:56 40.785586 -111.978056 231 4236ft 0kts
06-May-18 17:57 40.785586 -111.978056 231 4236ft 0kts
06-May-18 17:58 40.785586 -111.978056 231 4236ft 0kts
06-May-18 17:59 40.785586 -111.978056 231 4236ft 0kts
06-May-18 18:00 40.785586 -111.978056 231 4236ft 0kts
06-May-18 18:01 40.785586 -111.978056 231 4236ft 0kts
06-May-18 18:02 40.785586 -111.978056 231 4236ft 0kts
06-May-18 18:03 40.785586 -111.978056 231 4236ft 0kts
06-May-18 18:04 40.785586 -111.978056 231 4236ft 0kts
06-May-18 18:05 40.785586 -111.978056 231 4236ft 0kts
06-May-18 18:06 40.785586 -111.978056 231 4236ft 0kts
06-May-18 18:07 40.785586 -111.978056 231 4236ft 0kts
06-May-18 18:08 40.785586 -111.978056 231 4236ft 0kts
06-May-18 18:09 40.785586 -111.978056 231 4236ft 0kts
06-May-18 18:10 40.785586 -111.978056 231 4236ft 0kts
06-May-18 18:11 40.785586 -111.978056 231 4236ft 0kts
06-May-18 18:12 40.785586 -111.978056 231 4236ft 0kts
06-May-18 18:13 40.785586 -111.978056 231 4236ft 0kts
06-May-18 18:14 40.785586 -111.978056 231 4236ft 0kts
06-May-18 18:15 40.785586 -111.978056 231 4236ft 0kts
06-May-18 18:16 40.785586 -111.978056 231 4236ft 0kts
06-May-18 18:17 40.785586 -111.978056 231 4236ft 0kts
06-May-18 18:18 40.785750 -111.977732 244 4236ft 2kts
06-May-18 18:19 40.785830 -111.976685 285 4236ft 2kts
06-May-18 18:20 40.785773 -111.976466 292 4236ft 0kts
06-May-18 18:21 40.785773 -111.976466 292 4236ft 0kts
06-May-18 18:22 40.785773 -111.976466 292 4236ft 0kts
06-May-18 18:23 40.787707 -111.976874 355 4236ft 19kts
06-May-18 18:24 40.793760 -111.977578 354 4236ft 25kts
06-May-18 18:25 40.798074 -111.978117 358 4236ft 23kts
06-May-18 18:26 40.803647 -111.978718 354 4236ft 18kts
06-May-18 18:27 40.807489 -111.978627 67 4236ft 0kts
06-May-18 18:28 40.807490 -111.978623 67 4236ft 0kts
06-May-18 18:29 40.807559 -111.978140 90 4236ft 6kts
06-May-18 18:30 40.807084 -111.976890 172 4236ft 1kts
06-May-18 18:31 40.781707 -111.973950 175 4292ft 175kts
06-May-18 18:32 40.741927 -112.001334 248 6054ft 211kts
06-May-18 18:33 40.750322 -112.089239 298 6307ft 273kts
06-May-18 18:34 40.788006 -112.178604 291 8170ft 286kts
06-May-18 18:35 40.820618 -112.276080 290 10396ft 293kts
06-May-18 18:36 40.885592 -112.342567 330 13099ft 313kts
06-May-18 18:36 40.953961 -112.379536 335 15071ft 322kts
06-May-18 18:38 41.055026 -112.424017 337 17604ft 334kts
06-May-18 18:39 41.137571 -112.478332 320 19730ft 333kts
06-May-18 18:40 41.213094 -112.551326 315 21751ft 338kts
06-May-18 18:41 41.290716 -112.635881 310 22389ft 382kts
06-May-18 18:42 41.362780 -112.742049 305 23896ft 389kts
06-May-18 18:43 41.435288 -112.849978 305 25430ft 392kts
06-May-18 18:44 41.507176 -112.959847 305 26773ft 395kts
06-May-18 18:45 41.579777 -113.071133 304 27966ft 397kts
06-May-18 18:46 41.652792 -113.182439 304 28958ft 399kts
06-May-18 18:47 41.725620 -113.294943 303 29878ft 400kts
06-May-18 18:48 41.798218 -113.406553 303 30987ft 394kts
06-May-18 18:48 41.857493 -113.498741 302 31844ft 390kts
06-May-18 18:49 41.928138 -113.608235 302 32794ft 385kts
06-May-18 18:50 41.997312 -113.716811 302 33608ft 381kts
06-May-18 18:51 42.066248 -113.825096 302 34011ft 386kts
06-May-18 18:52 42.135671 -113.934395 302 34009ft 385kts
06-May-18 18:53 42.204867 -114.043562 302 34010ft 384kts
06-May-18 18:54 42.274148 -114.152957 302 34011ft 384kts
06-May-18 18:55 42.343326 -114.263464 301 34014ft 385kts
06-May-18 18:56 42.412531 -114.374167 302 34017ft 385kts
06-May-18 18:57 42.482110 -114.485615 303 34018ft 387kts
06-May-18 18:58 42.552666 -114.596665 303 34018ft 389kts
06-May-18 18:59 42.624217 -114.707164 303 34018ft 391kts
06-May-18 19:00 42.695958 -114.818923 303 34017ft 393kts
06-May-18 19:01 42.767583 -114.930742 303 34023ft 393kts
06-May-18 19:02 42.839121 -115.043029 303 34022ft 394kts
06-May-18 19:03 42.911150 -115.156382 303 34018ft 394kts
06-May-18 19:04 42.982958 -115.269789 303 34010ft 394kts
06-May-18 19:05 43.054884 -115.383948 303 33999ft 395kts
06-May-18 19:06 43.127166 -115.498977 303 34005ft 399kts
06-May-18 19:07 43.199373 -115.614431 303 34013ft 401kts
06-May-18 19:08 43.272029 -115.731104 303 34013ft 403kts
06-May-18 19:09 43.344954 -115.848244 303 34019ft 405kts
06-May-18 19:11 43.417905 -115.966433 303 34026ft 407kts
06-May-18 19:12 43.491383 -116.085769 303 34029ft 407kts
06-May-18 19:13 43.566625 -116.203185 308 34029ft 414kts
06-May-18 19:14 43.652466 -116.309396 311 34031ft 416kts
06-May-18 19:15 43.739639 -116.414861 311 34036ft 416kts
06-May-18 19:16 43.825930 -116.520904 311 34039ft 415kts
06-May-18 19:17 43.912231 -116.627308 311 34044ft 414kts
06-May-18 19:18 43.997984 -116.733298 311 34049ft 413kts
06-May-18 19:19 44.083971 -116.841235 312 34051ft 423kts
06-May-18 19:20 44.171895 -116.950590 312 34051ft 423kts
06-May-18 19:21 44.259328 -117.059826 312 34056ft 422kts
06-May-18 19:22 44.346644 -117.169455 312 34064ft 422kts
06-May-18 19:23 44.433946 -117.279899 312 34080ft 421kts
06-May-18 19:24 44.520953 -117.390237 312 34092ft 421kts
06-May-18 19:25 44.608207 -117.501203 312 34101ft 422kts
06-May-18 19:26 44.695130 -117.612417 312 34106ft 424kts
06-May-18 19:27 44.782243 -117.724417 313 34108ft 426kts
06-May-18 19:28 44.846770 -117.859021 287 34112ft 417kts
06-May-18 19:29 44.873365 -118.016640 275 34111ft 413kts
06-May-18 19:30 44.891560 -118.176014 277 34114ft 413kts
06-May-18 19:31 44.912565 -118.335940 278 34119ft 414kts
06-May-18 19:32 44.933475 -118.495720 277 34116ft 414kts
06-May-18 19:33 44.953482 -118.656406 278 34127ft 415kts
06-May-18 19:34 44.973553 -118.816667 278 34129ft 414kts
06-May-18 19:35 44.993590 -118.976988 278 34115ft 415kts
06-May-18 19:36 45.013029 -119.137808 278 34113ft 414kts
06-May-18 19:37 45.032246 -119.297920 278 34113ft 414kts
06-May-18 19:38 45.051478 -119.457978 278 34117ft 413kts
06-May-18 19:39 45.070529 -119.618867 278 34115ft 414kts
06-May-18 19:40 45.088803 -119.779270 278 34112ft 414kts
06-May-18 19:41 45.107200 -119.940580 278 34111ft 414kts
06-May-18 19:42 45.125545 -120.100863 278 34110ft 408kts
06-May-18 19:43 45.140979 -120.260991 277 34109ft 410kts
06-May-18 19:44 45.159238 -120.420257 279 33577ft 404kts
06-May-18 19:45 45.188412 -120.575529 294 31041ft 414kts
06-May-18 19:46 45.245031 -120.719217 296 28725ft 414kts
06-May-18 19:47 45.298732 -120.862212 297 26271ft 401kts
06-May-18 19:48 45.350812 -120.998284 297 23997ft 385kts
06-May-18 19:49 45.400916 -121.129449 297 21733ft 372kts
06-May-18 19:50 45.441779 -121.263744 286 18820ft 374kts
06-May-18 19:51 45.468036 -121.400041 284 16596ft 330kts
06-May-18 19:52 45.493272 -121.527868 285 14724ft 322kts
06-May-18 19:53 45.516428 -121.645095 285 12870ft 301kts
06-May-18 19:54 45.532913 -121.761224 274 10397ft 309kts
06-May-18 19:55 45.536370 -121.871352 274 9363ft 253kts
06-May-18 19:56 45.539788 -121.973139 273 7471ft 261kts
06-May-18 19:57 45.543132 -122.073233 273 5639ft 240kts
06-May-18 19:58 45.513854 -122.151958 223 4210ft 243kts
06-May-18 19:59 45.473182 -122.220771 251 4002ft 211kts
06-May-18 20:00 45.473801 -122.290301 305 3974ft 157kts
06-May-18 20:01 45.495722 -122.338188 304 3427ft 199kts
06-May-18 20:02 45.525525 -122.411064 296 2545ft 189kts
06-May-18 20:03 45.547554 -122.469338 296 1632ft 153kts
06-May-18 20:04 45.567002 -122.524479 296 621ft 157kts
06-May-18 20:05 45.586272 -122.573852 298 30ft 125kts
06-May-18 20:06 45.592031 -122.589477 275 27ft 0kts
06-May-18 20:07 45.592031 -122.589481 275 27ft 0kts
06-May-18 20:08 45.592108 -122.590551 274 27ft 9kts
06-May-18 20:09 45.592141 -122.593944 274 27ft 6kts
06-May-18 20:10 45.591718 -122.595066 210 27ft 0kts
06-May-18 20:11 45.591717 -122.595067 210 27ft 0kts
06-May-18 20:12 45.591717 -122.595067 210 27ft 0kts
06-May-18 20:13 45.591717 -122.595067 210 27ft 0kts
06-May-18 20:14 45.591717 -122.595067 210 27ft 0kts
06-May-18 20:15 45.591717 -122.595067 210 27ft 0kts
06-May-18 20:16 45.591717 -122.595067 210 27ft 0kts
06-May-18 20:17 45.591717 -122.595067 210 27ft 0kts
06-May-18 20:18 45.591717 -122.595067 210 27ft 0kts

Navigation Log

Ident Type
Flight plan parsing failed, navigation log unavailable